Time;durP1;ratioP1;P1;durP2;ratioP2;P2;SDS_P1;SDS_P2;PMS_P1;PMS_P2;Temp;Humidity;BMP_temperature;BMP_pressure;BME280_temperature;BME280_humidity;BME280_pressure;Samples;Min_cycle;Max_cycle;Signal;HPM_P1;HPM_P2
2022/09/23 00:02:15;;;;;;;6.80;5.10;;;12.80;70.20;;;;;;5136879;27;20027;-35
2022/09/23 00:04:41;;;;;;;6.57;4.60;;;12.80;70.20;;;;;;5118030;27;20025;-34
2022/09/23 00:07:07;;;;;;;5.65;4.65;;;12.80;70.30;;;;;;5136444;27;20026;-34
2022/09/23 00:09:33;;;;;;;6.95;5.43;;;12.70;70.30;;;;;;5137030;27;20099;-35
2022/09/23 00:11:59;;;;;;;7.05;4.80;;;12.70;70.50;;;;;;5136475;27;20079;-35
2022/09/23 00:14:25;;;;;;;7.15;5.55;;;12.70;70.60;;;;;;5136773;27;20019;-35
2022/09/23 00:16:51;;;;;;;7.75;5.00;;;12.70;70.60;;;;;;5118351;27;20415;-37
2022/09/23 00:19:16;;;;;;;7.90;5.22;;;12.70;70.60;;;;;;5136227;27;20080;-35
2022/09/23 00:21:42;;;;;;;5.65;4.80;;;12.70;70.70;;;;;;5136193;27;20046;-33
2022/09/23 00:24:07;;;;;;;6.43;4.93;;;12.60;70.70;;;;;;5136072;27;20019;-34
2022/09/23 00:26:33;;;;;;;6.03;4.65;;;12.60;70.80;;;;;;5136076;27;20031;-34
2022/09/23 00:28:59;;;;;;;7.43;5.25;;;12.60;70.90;;;;;;5136000;27;20020;-34
2022/09/23 00:31:26;;;;;;;7.63;4.90;;;12.50;70.80;;;;;;5117471;27;20026;-34
2022/09/23 00:33:56;;;;;;;7.47;4.80;;;12.50;70.90;;;;;;5136343;27;20494;-41
2022/09/23 00:36:23;;;;;;;7.05;4.72;;;12.50;71.00;;;;;;5135937;27;20047;-35
2022/09/23 00:38:49;;;;;;;8.82;4.85;;;12.50;71.00;;;;;;5117064;27;20027;-35
2022/09/23 00:41:15;;;;;;;6.20;4.75;;;12.50;71.10;;;;;;5136497;27;20088;-35
2022/09/23 00:43:42;;;;;;;6.93;4.78;;;12.40;71.20;;;;;;5136180;27;20462;-34
2022/09/23 00:46:10;;;;;;;6.18;4.70;;;12.40;71.30;;;;;;5135661;27;20027;-34
2022/09/23 00:48:38;;;;;;;6.45;4.95;;;12.40;71.40;;;;;;5135713;27;20526;-41
2022/09/23 00:51:06;;;;;;;6.82;4.70;;;12.40;71.40;;;;;;5135450;27;20105;-33
2022/09/23 00:53:33;;;;;;;6.55;5.13;;;12.40;71.40;;;;;;5136059;27;20027;-34
2022/09/23 00:56:03;;;;;;;7.35;4.72;;;12.40;71.50;;;;;;5116875;27;20505;-34
2022/09/23 00:58:31;;;;;;;7.32;4.78;;;12.40;71.60;;;;;;5116889;27;20039;-34
2022/09/23 01:01:01;;;;;;;6.93;4.75;;;12.30;71.60;;;;;;5135457;27;20064;-44
2022/09/23 01:03:27;;;;;;;6.28;4.78;;;12.30;71.70;;;;;;5135316;27;20410;-35
2022/09/23 01:05:53;;;;;;;5.63;4.53;;;12.30;71.70;;;;;;5135586;27;20015;-34
2022/09/23 01:08:20;;;;;;;5.53;4.82;;;12.30;71.70;;;;;;5135322;27;20098;-34
2022/09/23 01:11:17;;;;;;;7.40;5.00;;;12.30;71.80;;;;;;5116663;27;20197;-33
2022/09/23 01:14:30;;;;;;;5.20;4.60;;;12.30;72.00;;;;;;5135296;27;20075;-35
2022/09/23 01:16:57;;;;;;;6.90;5.05;;;12.20;71.90;;;;;;5113044;27;20042;-35
2022/09/23 01:19:48;;;;;;;5.72;4.70;;;12.20;72.00;;;;;;5134982;27;20034;-35
2022/09/23 01:22:17;;;;;;;8.60;4.97;;;12.20;72.20;;;;;;5121404;27;20031;-35
2022/09/23 01:24:49;;;;;;;6.88;5.10;;;12.10;72.20;;;;;;5135140;27;20038;-34
2022/09/23 01:27:20;;;;;;;7.68;5.50;;;12.10;72.40;;;;;;5135156;27;20466;-35
2022/09/23 01:30:04;;;;;;;5.88;4.70;;;12.10;72.50;;;;;;5134973;27;20526;-34
2022/09/23 01:32:38;;;;;;;8.43;5.00;;;12.10;72.60;;;;;;5135085;27;20537;-35
2022/09/23 01:35:29;;;;;;;6.88;4.43;;;12.00;72.60;;;;;;5134911;27;20470;-35
2022/09/23 01:38:16;;;;;;;6.53;4.97;;;12.00;72.70;;;;;;5134761;27;20015;-34
2022/09/23 01:40:50;;;;;;;5.90;4.60;;;12.00;72.80;;;;;;5134698;27;20019;-34
2022/09/23 01:43:32;;;;;;;7.95;5.15;;;12.00;73.40;;;;;;5134919;27;20027;-34
2022/09/23 01:46:00;;;;;;;5.85;4.80;;;12.00;72.90;;;;;;5134397;27;20079;-35
2022/09/23 01:48:54;;;;;;;8.55;4.90;;;12.00;73.00;;;;;;5134102;27;20482;-34
2022/09/23 01:51:29;;;;;;;6.30;4.45;;;11.90;73.00;;;;;;5133641;27;20065;-35
2022/09/23 01:54:17;;;;;;;9.02;5.00;;;11.90;73.10;;;;;;5134181;27;20074;-34
2022/09/23 01:57:15;;;;;;;6.72;4.88;;;11.80;73.20;;;;;;5115554;27;20035;-33
2022/09/23 01:59:47;;;;;;;6.65;5.43;;;11.80;73.30;;;;;;5094746;27;20043;-35
2022/09/23 02:02:18;;;;;;;6.18;5.20;;;11.80;73.40;;;;;;5115509;27;20041;-35
2022/09/23 02:04:50;;;;;;;7.07;4.93;;;11.80;73.60;;;;;;5133943;27;20382;-33
2022/09/23 02:07:48;;;;;;;6.80;5.00;;;11.70;73.60;;;;;;5134209;27;20503;-33
2022/09/23 02:10:26;;;;;;;7.55;5.00;;;11.70;73.80;;;;;;5133685;27;20022;-35
2022/09/23 02:12:57;;;;;;;6.85;5.05;;;11.70;73.90;;;;;;5134237;27;20411;-33
2022/09/23 02:15:27;;;;;;;5.78;4.80;;;11.60;73.90;;;;;;5133892;27;20034;-35
2022/09/23 02:17:57;;;;;;;6.70;5.10;;;11.60;74.00;;;;;;5134101;27;20122;-35
2022/09/23 02:20:32;;;;;;;5.78;5.18;;;11.60;74.10;;;;;;5134207;27;20357;-34
2022/09/23 02:23:21;;;;;;;6.47;4.90;;;11.60;74.10;;;;;;5133601;27;20029;-33
2022/09/23 02:26:01;;;;;;;6.40;4.78;;;11.50;74.20;;;;;;5133781;27;20510;-33
2022/09/23 02:28:40;;;;;;;6.68;4.75;;;11.50;74.10;;;;;;5134216;27;20442;-34
2022/09/23 02:31:26;;;;;;;6.57;5.00;;;11.50;74.20;;;;;;5133825;27;20024;-34
2022/09/23 02:34:04;;;;;;;6.88;4.80;;;11.50;74.30;;;;;;5133730;27;20037;-35
2022/09/23 02:36:44;;;;;;;6.00;5.07;;;11.50;74.40;;;;;;5133564;27;20469;-35
2022/09/23 02:39:12;;;;;;;6.25;4.85;;;11.50;74.30;;;;;;5133593;27;20027;-35
2022/09/23 02:42:03;;;;;;;6.35;4.97;;;11.50;74.40;;;;;;5133619;27;20055;-35
2022/09/23 02:44:29;;;;;;;7.15;5.00;;;11.50;74.50;;;;;;5133411;27;20109;-35
2022/09/23 02:46:55;;;;;;;6.03;4.97;;;11.50;74.50;;;;;;5133391;27;20023;-35
2022/09/23 02:49:26;;;;;;;8.00;5.05;;;11.50;74.60;;;;;;5133725;27;20023;-35
2022/09/23 02:51:53;;;;;;;7.70;5.30;;;11.50;74.60;;;;;;5133557;27;20019;-34
2022/09/23 02:54:23;;;;;;;7.65;5.28;;;11.50;74.70;;;;;;5133299;27;20458;-35
2022/09/23 02:56:48;;;;;;;8.43;5.47;;;11.50;74.80;;;;;;5133284;27;20061;-35
2022/09/23 02:59:19;;;;;;;5.55;4.80;;;11.50;74.80;;;;;;5133457;27;20024;-34
2022/09/23 03:02:21;;;;;;;7.05;5.00;;;11.50;74.90;;;;;;5132866;27;20036;-33
2022/09/23 03:05:16;;;;;;;7.43;4.80;;;11.60;75.00;;;;;;5133243;27;20038;-43
2022/09/23 03:08:17;;;;;;;5.95;4.90;;;11.50;74.90;;;;;;5133342;28;20034;-33
2022/09/23 03:11:04;;;;;;;7.82;5.50;;;11.50;74.90;;;;;;5133604;28;20130;-35
2022/09/23 03:13:49;;;;;;;7.78;5.43;;;11.50;75.00;;;;;;5133272;28;20085;-34
2022/09/23 03:16:31;;;;;;;5.68;5.07;;;11.50;75.10;;;;;;5133565;28;20027;-34
2022/09/23 03:18:57;;;;;;;6.63;4.65;;;11.50;75.20;;;;;;5133019;28;20016;-35
2022/09/23 03:21:37;;;;;;;6.43;5.13;;;11.50;75.30;;;;;;5133317;28;20050;-35
2022/09/23 03:24:06;;;;;;;6.80;5.25;;;11.50;75.30;;;;;;5132885;28;20038;-34
2022/09/23 03:26:35;;;;;;;6.65;5.20;;;11.50;75.30;;;;;;5114643;28;20023;-35
2022/09/23 03:29:08;;;;;;;6.07;4.82;;;11.40;75.30;;;;;;5133016;28;20467;-35
2022/09/23 03:31:36;;;;;;;7.30;5.22;;;11.40;75.40;;;;;;5132838;28;20026;-35
2022/09/23 03:34:11;;;;;;;6.20;4.97;;;11.40;75.40;;;;;;5132714;28;20141;-34
2022/09/23 03:36:50;;;;;;;7.38;5.07;;;11.40;75.50;;;;;;5114817;28;20114;-34
2022/09/23 03:39:34;;;;;;;7.25;5.13;;;11.40;75.50;;;;;;5133073;28;20024;-34
2022/09/23 03:42:02;;;;;;;;;;;11.30;75.50;;;;;;5133465;28;20144;-35
2022/09/23 03:47:49;;;;;;;7.50;5.00;;;11.30;75.60;;;;;;5132975;28;20557;-33
2022/09/23 03:50:18;;;;;;;5.82;4.80;;;11.30;75.50;;;;;;5133425;28;20047;-34
2022/09/23 03:52:43;;;;;;;7.30;5.22;;;11.30;75.60;;;;;;5132567;28;20051;-35
2022/09/23 03:55:10;;;;;;;7.18;5.50;;;11.30;75.70;;;;;;5132703;28;20066;-36
2022/09/23 03:57:36;;;;;;;8.05;5.10;;;11.30;75.70;;;;;;5132348;28;20046;-36
2022/09/23 04:00:05;;;;;;;7.97;5.55;;;11.20;75.70;;;;;;5132673;28;20475;-35
2022/09/23 04:02:31;;;;;;;6.53;4.85;;;11.20;75.80;;;;;;5132574;28;20163;-34
2022/09/23 04:04:56;;;;;;;7.65;4.88;;;11.20;75.80;;;;;;5132525;28;20159;-34
2022/09/23 04:07:22;;;;;;;7.60;4.97;;;11.20;75.90;;;;;;5132740;28;20034;-35
2022/09/23 04:09:47;;;;;;;6.30;4.93;;;11.20;75.90;;;;;;5132763;28;20462;-35
2022/09/23 04:12:14;;;;;;;6.90;5.15;;;11.20;75.90;;;;;;5133899;27;20019;-35
2022/09/23 04:14:41;;;;;;;8.82;5.15;;;11.20;75.90;;;;;;5136943;27;20045;-34
2022/09/23 04:17:07;;;;;;;7.22;4.80;;;11.20;75.90;;;;;;5136220;27;20016;-34
2022/09/23 04:19:32;;;;;;;7.20;5.00;;;11.20;76.00;;;;;;5136652;27;20098;-34
2022/09/23 04:21:58;;;;;;;6.43;4.88;;;11.20;76.00;;;;;;5136313;27;20051;-35
2022/09/23 04:24:24;;;;;;;7.07;4.90;;;11.20;76.10;;;;;;5136162;27;20023;-35
2022/09/23 04:26:52;;;;;;;8.20;4.57;;;11.20;76.10;;;;;;5136156;27;20087;-34
2022/09/23 04:29:18;;;;;;;6.50;5.20;;;11.20;76.10;;;;;;5135948;27;20007;-35
2022/09/23 04:31:44;;;;;;;6.05;5.35;;;11.20;76.10;;;;;;5117299;27;20386;-34
2022/09/23 04:34:09;;;;;;;9.88;5.50;;;11.20;76.20;;;;;;5117688;27;20115;-38
2022/09/23 04:36:35;;;;;;;8.95;5.57;;;11.20;76.10;;;;;;5136216;27;20089;-35
2022/09/23 04:39:01;;;;;;;6.50;5.00;;;11.20;76.20;;;;;;5135786;27;20099;-35
2022/09/23 04:41:26;;;;;;;7.95;5.15;;;11.30;76.20;;;;;;5135981;27;20031;-35
2022/09/23 04:43:52;;;;;;;5.80;4.82;;;11.30;76.20;;;;;;5135785;27;20480;-35
2022/09/23 04:46:18;;;;;;;7.00;5.15;;;11.30;76.20;;;;;;5135856;27;20027;-34
2022/09/23 04:48:44;;;;;;;6.15;5.55;;;11.30;76.20;;;;;;5135645;27;20054;-34
2022/09/23 04:51:17;;;;;;;6.30;4.95;;;11.30;76.20;;;;;;5135804;27;20023;-35
2022/09/23 04:53:46;;;;;;;7.97;5.43;;;11.30;76.30;;;;;;5135432;27;20054;-34
2022/09/23 04:56:15;;;;;;;6.25;5.43;;;11.30;76.40;;;;;;5136325;27;20456;-35
2022/09/23 04:58:41;;;;;;;5.70;5.03;;;11.30;76.40;;;;;;5136047;27;20035;-34
2022/09/23 05:01:11;;;;;;;7.18;5.15;;;11.30;76.40;;;;;;5135727;27;20015;-35
2022/09/23 05:03:37;;;;;;;7.35;5.45;;;11.30;76.40;;;;;;5135531;27;20041;-35
2022/09/23 05:06:03;;;;;;;6.80;5.40;;;11.30;76.40;;;;;;5135500;27;20090;-35
2022/09/23 05:08:29;;;;;;;8.43;5.47;;;11.30;76.50;;;;;;5135295;27;20079;-35
2022/09/23 05:10:59;;;;;;;7.97;5.13;;;11.30;76.40;;;;;;5135222;27;20019;-35
2022/09/23 05:13:25;;;;;;;8.05;5.20;;;11.30;76.50;;;;;;5135350;27;20031;-35
2022/09/23 05:16:05;;;;;;;7.22;5.15;;;11.30;76.50;;;;;;5135293;27;20417;-34
2022/09/23 05:18:32;;;;;;;6.55;5.10;;;11.30;76.50;;;;;;5135099;27;20062;-35
2022/09/23 05:20:57;;;;;;;6.00;5.10;;;11.40;76.50;;;;;;5135445;27;20474;-38
2022/09/23 05:23:23;;;;;;;5.57;4.70;;;11.40;76.50;;;;;;5116424;27;20019;-35
2022/09/23 05:26:15;;;;;;;7.63;5.25;;;11.40;76.50;;;;;;5135126;27;20084;-34
2022/09/23 05:28:41;;;;;;;6.07;4.88;;;11.40;76.50;;;;;;5134486;27;20497;-35
2022/09/23 05:31:15;;;;;;;6.68;5.25;;;11.50;76.50;;;;;;5116354;27;20012;-35
2022/09/23 05:33:43;;;;;;;6.40;4.90;;;11.50;77.20;;;;;;5116440;27;20019;-33
2022/09/23 05:36:09;;;;;;;6.80;5.20;;;11.50;76.50;;;;;;5135070;27;20041;-42
2022/09/23 05:38:34;;;;;;;8.23;5.57;;;11.50;76.50;;;;;;5134807;27;20106;-35
2022/09/23 05:41:03;;;;;;;7.93;4.45;;;11.50;76.50;;;;;;5134672;27;20058;-35
2022/09/23 05:43:29;;;;;;;7.85;4.80;;;11.50;76.40;;;;;;5134536;27;20031;-35
2022/09/23 05:46:02;;;;;;;11.02;5.45;;;11.50;76.50;;;;;;5134484;27;20019;-26
2022/09/23 05:48:30;;;;;;;6.05;4.65;;;11.60;76.50;;;;;;5134919;27;20027;-27
2022/09/23 05:50:56;;;;;;;7.68;4.90;;;11.60;76.50;;;;;;5134903;27;20098;-26
2022/09/23 05:53:21;;;;;;;7.38;5.22;;;11.60;76.50;;;;;;5134825;27;20065;-24
2022/09/23 05:55:47;;;;;;;7.10;5.10;;;11.60;76.50;;;;;;5135079;27;20087;-24
2022/09/23 05:58:14;;;;;;;5.70;4.70;;;11.60;76.50;;;;;;5134324;27;20035;-27
2022/09/23 06:00:40;;;;;;;6.00;5.13;;;11.60;76.50;;;;;;5134537;27;20030;-25
2022/09/23 06:03:13;;;;;;;6.00;4.78;;;11.60;76.40;;;;;;5134184;27;20031;-25
2022/09/23 06:05:39;;;;;;;6.65;4.80;;;11.70;76.50;;;;;;5134432;27;20051;-26
2022/09/23 06:08:05;;;;;;;6.00;4.90;;;11.70;76.40;;;;;;5134598;27;20058;-26
2022/09/23 06:10:36;;;;;;;5.78;4.70;;;11.80;76.50;;;;;;5134306;27;20076;-26
2022/09/23 06:13:01;;;;;;;7.45;5.00;;;11.80;76.50;;;;;;5134240;27;20031;-27
2022/09/23 06:15:27;;;;;;;5.68;4.75;;;11.80;76.40;;;;;;5115701;27;20026;-27
2022/09/23 06:17:52;;;;;;;9.55;5.80;;;11.90;76.40;;;;;;5134235;27;20034;-26
2022/09/23 06:20:18;;;;;;;7.53;4.72;;;11.90;76.30;;;;;;5134028;27;20029;-25
2022/09/23 06:22:43;;;;;;;6.57;4.90;;;12.00;76.40;;;;;;5134032;27;20053;-26
2022/09/23 06:25:10;;;;;;;7.38;4.90;;;12.00;76.30;;;;;;5134209;27;20019;-25
2022/09/23 06:27:35;;;;;;;7.43;4.75;;;12.00;76.30;;;;;;5134366;27;20023;-26
2022/09/23 06:30:01;;;;;;;8.60;5.15;;;12.10;76.20;;;;;;5133999;27;20383;-26
2022/09/23 06:32:27;;;;;;;7.55;5.00;;;12.10;76.20;;;;;;5134412;27;20411;-43
2022/09/23 06:34:52;;;;;;;11.80;8.65;;;12.20;76.20;;;;;;5133175;27;20470;-43
2022/09/23 06:37:18;;;;;;;11.48;8.55;;;12.20;76.10;;;;;;5133900;27;20023;-43
2022/09/23 06:39:44;;;;;;;8.90;6.50;;;12.30;76.00;;;;;;5133723;27;20043;-42
2022/09/23 06:42:09;;;;;;;7.35;6.03;;;12.30;76.00;;;;;;5133736;27;20023;-42
2022/09/23 06:44:35;;;;;;;9.50;5.20;;;12.40;76.00;;;;;;5114991;27;20027;-43
2022/09/23 06:47:00;;;;;;;7.63;4.65;;;12.40;75.90;;;;;;5115048;27;20058;-43
2022/09/23 06:49:26;;;;;;;7.72;5.05;;;12.50;75.80;;;;;;5133742;27;20034;-43
2022/09/23 06:51:51;;;;;;;8.60;4.45;;;12.50;75.70;;;;;;5133748;27;20026;-39
2022/09/23 06:54:17;;;;;;;5.95;4.35;;;12.60;75.60;;;;;;5133904;27;20059;-39
2022/09/23 06:56:46;;;;;;;6.72;4.20;;;12.60;75.50;;;;;;5133155;27;20498;-41
2022/09/23 06:59:15;;;;;;;6.43;4.15;;;12.60;75.30;;;;;;5133677;27;20027;-41
2022/09/23 07:01:41;;;;;;;6.05;4.25;;;12.70;75.30;;;;;;5133440;27;20497;-43
2022/09/23 07:04:09;;;;;;;8.43;4.03;;;12.70;75.20;;;;;;5133369;27;20485;-45
2022/09/23 07:06:35;;;;;;;7.05;4.45;;;12.70;75.10;;;;;;5133462;27;20027;-39
2022/09/23 07:09:00;;;;;;;7.07;4.57;;;12.80;75.10;;;;;;5133304;28;20378;-41
2022/09/23 07:11:26;;;;;;;13.77;8.50;;;12.80;75.00;;;;;;5133642;28;20027;-39
2022/09/23 07:13:52;;;;;;;8.63;5.90;;;12.80;74.90;;;;;;5133515;28;20011;-42
2022/09/23 07:16:17;;;;;;;7.70;5.97;;;12.90;74.90;;;;;;5115449;28;20023;-40
2022/09/23 07:18:43;;;;;;;8.68;5.05;;;12.90;74.70;;;;;;5133257;28;20030;-44
2022/09/23 07:21:13;;;;;;;6.55;4.90;;;12.90;74.60;;;;;;5133468;28;20109;-41
2022/09/23 07:23:46;;;;;;;5.93;4.47;;;12.90;74.50;;;;;;5133285;28;20076;-39
2022/09/23 07:26:13;;;;;;;6.47;4.53;;;13.00;74.50;;;;;;5133349;28;20023;-42
2022/09/23 07:28:39;;;;;;;8.75;5.13;;;13.00;74.40;;;;;;5133344;28;20103;-42
2022/09/23 07:31:16;;;;;;;6.97;4.22;;;13.00;74.30;;;;;;5133358;28;20050;-43
2022/09/23 07:33:42;;;;;;;6.38;4.35;;;13.10;74.30;;;;;;5133203;28;20470;-43
2022/09/23 07:36:11;;;;;;;8.77;5.45;;;13.10;74.20;;;;;;5115036;28;20023;-42
2022/09/23 07:38:37;;;;;;;6.72;5.32;;;13.10;74.10;;;;;;5133566;28;20099;-41
2022/09/23 07:41:08;;;;;;;21.27;13.25;;;13.10;74.10;;;;;;5133704;28;20024;-41
2022/09/23 07:43:34;;;;;;;13.43;7.43;;;13.20;74.10;;;;;;5133407;28;20531;-44
2022/09/23 07:46:03;;;;;;;7.97;5.90;;;13.20;74.00;;;;;;5133153;27;20513;-40
2022/09/23 07:48:30;;;;;;;8.13;5.28;;;13.20;74.00;;;;;;5135881;27;20409;-44
2022/09/23 07:50:56;;;;;;;8.35;5.18;;;13.20;73.90;;;;;;5136878;27;20011;-40
2022/09/23 07:53:22;;;;;;;6.18;4.97;;;13.30;73.80;;;;;;5136864;27;20027;-41
2022/09/23 07:55:55;;;;;;;6.80;5.40;;;13.40;73.80;;;;;;5136809;27;20072;-42
2022/09/23 07:58:22;;;;;;;6.70;4.53;;;13.40;73.70;;;;;;5136960;27;20042;-40
2022/09/23 08:00:52;;;;;;;10.25;7.15;;;13.50;73.70;;;;;;5136871;27;20390;-41
2022/09/23 08:03:17;;;;;;;7.93;5.20;;;13.50;73.60;;;;;;5137218;27;20535;-43
2022/09/23 08:05:43;;;;;;;7.55;4.75;;;13.70;73.60;;;;;;5136915;27;20020;-42
2022/09/23 08:08:08;;;;;;;6.10;4.88;;;13.70;73.40;;;;;;5137053;27;20064;-43
2022/09/23 08:10:34;;;;;;;9.10;4.68;;;13.80;73.30;;;;;;5136807;27;20015;-43
2022/09/23 08:13:02;;;;;;;9.38;5.78;;;13.80;73.20;;;;;;5136694;27;20034;-41
2022/09/23 08:15:29;;;;;;;8.98;6.57;;;13.90;73.10;;;;;;5136660;27;20474;-42
2022/09/23 08:17:58;;;;;;;7.97;5.90;;;14.00;73.00;;;;;;5136872;27;20023;-41
2022/09/23 08:20:43;;;;;;;6.63;4.78;;;14.10;72.80;;;;;;5136802;27;20439;-44
2022/09/23 08:23:09;;;;;;;7.75;4.85;;;14.20;72.70;;;;;;5136285;27;20107;-39
2022/09/23 08:25:34;;;;;;;7.75;4.72;;;14.30;72.50;;;;;;5136593;27;20024;-43
2022/09/23 08:28:00;;;;;;;8.93;4.65;;;14.30;72.20;;;;;;5136007;27;20516;-43
2022/09/23 08:30:25;;;;;;;6.47;4.47;;;14.40;72.00;;;;;;5136563;27;20058;-43
2022/09/23 08:32:51;;;;;;;8.00;4.43;;;14.40;72.50;;;;;;5135860;27;20080;-39
2022/09/23 08:35:17;;;;;;;7.80;4.30;;;14.50;71.70;;;;;;5136189;27;20089;-41
2022/09/23 08:37:43;;;;;;;6.70;4.45;;;14.60;71.50;;;;;;5136237;27;20039;-41
2022/09/23 08:40:09;;;;;;;5.22;4.45;;;14.60;71.30;;;;;;5135941;27;20124;-43
2022/09/23 08:42:38;;;;;;;7.03;4.20;;;14.60;71.20;;;;;;5136086;27;20378;-40
2022/09/23 08:45:10;;;;;;;7.32;4.68;;;14.70;71.10;;;;;;5135823;27;20102;-43
2022/09/23 08:48:04;;;;;;;5.47;4.68;;;14.80;70.90;;;;;;5136060;27;20027;-44
2022/09/23 08:50:44;;;;;;;6.43;4.78;;;14.90;70.80;;;;;;5119465;27;20042;-43
2022/09/23 08:53:36;;;;;;;7.10;4.60;;;14.90;70.60;;;;;;5136100;27;20114;-43
2022/09/23 08:56:16;;;;;;;7.32;4.63;;;15.00;70.60;;;;;;5125001;27;20394;-42
2022/09/23 08:58:54;;;;;;;7.90;4.60;;;15.00;70.40;;;;;;5135086;27;20406;-42
2022/09/23 09:01:42;;;;;;;5.65;3.88;;;15.10;70.40;;;;;;5135579;27;20026;-41
2022/09/23 09:04:34;;;;;;;5.53;4.03;;;15.20;70.20;;;;;;5135675;27;20031;-40
2022/09/23 09:07:23;;;;;;;6.28;4.55;;;15.30;70.10;;;;;;5121485;27;20364;-42
2022/09/23 09:10:20;;;;;;;7.28;5.00;;;15.30;70.10;;;;;;5135432;27;20039;-42
2022/09/23 09:12:47;;;;;;;8.70;5.43;;;15.40;70.00;;;;;;5127391;27;20046;-43
2022/09/23 09:15:21;;;;;;;6.80;4.60;;;15.50;69.80;;;;;;5135299;27;20026;-39
2022/09/23 09:18:11;;;;;;;7.00;4.25;;;15.60;69.70;;;;;;5135175;27;20087;-39
2022/09/23 09:21:09;;;;;;;4.28;3.88;;;15.70;69.50;;;;;;5134876;27;20016;-43
2022/09/23 09:23:52;;;;;;;4.65;3.88;;;15.80;69.30;;;;;;5128036;27;20112;-39
2022/09/23 09:26:27;;;;;;;5.85;3.97;;;15.90;69.20;;;;;;5135049;27;20116;-43
2022/09/23 09:29:12;;;;;;;6.15;4.35;;;16.00;69.00;;;;;;5135302;27;20052;-43
2022/09/23 09:31:41;;;;;;;6.20;3.90;;;16.00;68.80;;;;;;5135045;27;20022;-28
2022/09/23 09:34:10;;;;;;;6.30;4.20;;;16.10;68.70;;;;;;5135291;27;20101;-29
2022/09/23 09:36:52;;;;;;;5.38;3.80;;;16.20;68.60;;;;;;5135682;27;20559;-31
2022/09/23 09:39:18;;;;;;;6.95;4.15;;;16.30;68.30;;;;;;5134973;27;20030;-28
2022/09/23 09:41:49;;;;;;;4.38;3.75;;;16.40;68.20;;;;;;5135047;27;20024;-31
2022/09/23 09:44:43;;;;;;;4.07;3.65;;;16.40;68.00;;;;;;5134759;27;20042;-29
2022/09/23 09:47:27;;;;;;;4.88;3.60;;;16.50;67.90;;;;;;5086775;27;20115;-30
2022/09/23 09:49:59;;;;;;;;;;;16.50;67.90;;;;;;5116818;27;20031;-31
2022/09/23 09:52:28;;;;;;;4.75;3.80;;;16.60;67.90;;;;;;5135010;27;19907;-35
2022/09/23 09:54:58;;;;;;;4.78;3.88;;;16.50;67.70;;;;;;5134605;27;20023;-29
2022/09/23 09:57:32;;;;;;;5.25;3.80;;;16.60;67.70;;;;;;5134742;27;20041;-31
2022/09/23 10:00:17;;;;;;;6.15;3.90;;;16.60;67.60;;;;;;5134518;27;20028;-35
2022/09/23 10:02:44;;;;;;;4.55;3.80;;;16.70;67.60;;;;;;5134856;27;20133;-28
2022/09/23 10:05:33;;;;;;;6.25;4.18;;;16.70;67.50;;;;;;5134618;27;20077;-30
2022/09/23 10:08:17;;;;;;;5.82;3.88;;;16.80;67.40;;;;;;5134532;27;20034;-29
2022/09/23 10:10:59;;;;;;;4.50;3.20;;;16.90;67.30;;;;;;5133289;27;20382;-30
2022/09/23 10:13:26;;;;;;;4.40;3.83;;;17.00;67.20;;;;;;5134600;27;20023;-28
2022/09/23 10:15:53;;;;;;;4.18;3.15;;;17.00;67.00;;;;;;5134432;27;20325;-29
2022/09/23 10:18:27;;;;;;;4.25;3.67;;;17.10;66.90;;;;;;5134564;27;20019;-28
2022/09/23 10:21:09;;;;;;;7.63;4.00;;;17.20;66.80;;;;;;5134344;27;20084;-29
2022/09/23 10:23:41;;;;;;;4.32;3.40;;;17.20;66.70;;;;;;5134599;27;20065;-39
2022/09/23 10:26:07;;;;;;;5.05;3.70;;;17.30;66.60;;;;;;5134428;27;20102;-30
2022/09/23 10:29:03;;;;;;;5.47;4.00;;;17.40;66.50;;;;;;5115602;27;20019;-28
2022/09/23 10:31:34;;;;;;;7.38;3.97;;;17.40;66.10;;;;;;5131760;27;20031;-44
2022/09/23 10:34:27;;;;;;;3.92;3.53;;;17.40;66.00;;;;;;5133658;27;20470;-42
2022/09/23 10:37:11;;;;;;;7.13;3.83;;;17.40;65.80;;;;;;5133831;27;20076;-43
2022/09/23 10:48:53;;;;;;;6.18;3.67;;;17.70;65.10;;;;;;5134303;27;20399;-43
2022/09/23 10:51:37;;;;;;;8.23;4.00;;;17.80;65.00;;;;;;5133922;27;20023;-41
2022/09/23 10:54:26;;;;;;;5.28;3.65;;;17.90;64.80;;;;;;5133984;27;20371;-43
2022/09/23 10:56:56;;;;;;;5.10;3.85;;;18.00;64.50;;;;;;5120061;27;20046;-45
2022/09/23 10:59:59;;;;;;;5.35;3.60;;;18.20;64.40;;;;;;5115941;27;20066;-38
2022/09/23 11:02:39;;;;;;;6.68;3.63;;;18.30;64.00;;;;;;5133713;27;20031;-43
2022/09/23 11:05:19;;;;;;;3.88;3.45;;;18.30;63.80;;;;;;5133664;27;20423;-41
2022/09/23 11:07:58;;;;;;;5.15;3.50;;;18.30;63.60;;;;;;5133332;27;20548;-42
2022/09/23 11:10:57;;;;;;;4.88;3.63;;;18.30;63.50;;;;;;5133407;28;20027;-43
2022/09/23 11:13:51;;;;;;;2.90;2.55;;;18.30;63.40;;;;;;5133592;28;20027;-42
2022/09/23 11:16:27;;;;;;;5.35;3.63;;;18.30;63.30;;;;;;5133653;28;20046;-43
2022/09/23 11:19:09;;;;;;;3.63;3.30;;;18.30;63.40;;;;;;5115254;28;20035;-45
2022/09/23 11:21:43;;;;;;;4.38;3.03;;;18.20;63.30;;;;;;5134880;27;20063;-44
2022/09/23 11:24:37;;;;;;;4.32;3.00;;;18.20;63.20;;;;;;5137521;27;20148;-43
2022/09/23 11:27:29;;;;;;;5.18;3.40;;;18.20;63.10;;;;;;5119033;27;20037;-43
2022/09/23 11:30:06;;;;;;;4.90;3.63;;;18.10;63.00;;;;;;5137684;27;20028;-43
2022/09/23 11:32:50;;;;;;;7.05;3.38;;;18.10;62.90;;;;;;5137547;27;20449;-43
2022/09/23 11:35:54;;;;;;;4.78;3.70;;;18.10;62.90;;;;;;5137371;27;20031;-43
2022/09/23 11:38:41;;;;;;;6.93;3.60;;;18.20;62.80;;;;;;5085157;27;20042;-44
2022/09/23 11:41:19;;;;;;;5.82;3.25;;;18.20;63.50;;;;;;5136772;27;20084;-43
2022/09/23 11:43:51;;;;;;;5.45;3.38;;;18.20;62.90;;;;;;5137418;27;20492;-39
2022/09/23 11:46:37;;;;;;;4.65;3.47;;;18.20;62.70;;;;;;5119919;27;20027;-44
2022/09/23 11:49:18;;;;;;;3.47;3.10;;;18.20;62.60;;;;;;5137200;27;20103;-44
2022/09/23 11:51:52;;;;;;;3.33;2.92;;;18.20;62.50;;;;;;5137688;27;20045;-42
2022/09/23 11:54:49;;;;;;;4.38;3.03;;;18.20;62.60;;;;;;5118584;27;20507;-45
2022/09/23 11:57:43;;;;;;;3.65;3.05;;;18.20;62.50;;;;;;5137002;27;20047;-41
2022/09/23 12:00:18;;;;;;;3.45;2.92;;;18.20;62.50;;;;;;5123308;27;20047;-42
2022/09/23 12:03:01;;;;;;;4.47;3.28;;;18.20;62.40;;;;;;5137086;27;20027;-43
2022/09/23 12:05:43;;;;;;;3.75;3.17;;;18.30;62.30;;;;;;5137258;27;20417;-40
2022/09/23 12:08:31;;;;;;;3.20;2.90;;;18.30;62.30;;;;;;5136963;27;20028;-45
2022/09/23 12:11:25;;;;;;;4.53;3.00;;;18.40;62.20;;;;;;5137842;27;20084;-46
2022/09/23 12:14:13;;;;;;;;;;;18.40;62.00;;;;;;5137246;27;20035;-42
2022/09/23 12:16:47;;;;;;;4.63;2.85;;;18.40;62.00;;;;;;5128180;27;19997;-44
2022/09/23 12:19:19;;;;;;;4.38;3.00;;;18.50;62.00;;;;;;5136742;27;20027;-44
2022/09/23 12:21:59;;;;;;;4.78;2.88;;;18.60;61.70;;;;;;5136951;27;20104;-42
2022/09/23 12:24:50;;;;;;;3.55;3.08;;;18.60;61.60;;;;;;5136612;27;20522;-44
2022/09/23 12:27:35;;;;;;;3.83;2.85;;;18.70;61.40;;;;;;5136575;27;20155;-41
2022/09/23 12:30:12;;;;;;;3.55;3.17;;;18.80;61.30;;;;;;5136627;27;20057;-44
2022/09/23 12:32:40;;;;;;;5.35;3.20;;;18.80;61.10;;;;;;5135927;27;20106;-43
2022/09/23 12:35:17;;;;;;;3.67;2.72;;;19.00;61.00;;;;;;5136358;27;20085;-43
2022/09/23 12:37:43;;;;;;;6.22;3.65;;;19.00;60.70;;;;;;5136405;27;20393;-44
2022/09/23 12:40:22;;;;;;;4.18;3.10;;;19.10;60.60;;;;;;5136718;27;20035;-43
2022/09/23 12:42:49;;;;;;;3.92;3.25;;;19.20;60.40;;;;;;5117700;27;20027;-44
2022/09/23 12:45:33;;;;;;;5.80;3.53;;;19.30;60.30;;;;;;5136452;27;20019;-43
2022/09/23 12:48:03;;;;;;;5.57;3.72;;;19.40;60.00;;;;;;5136184;27;20098;-31
2022/09/23 12:51:05;;;;;;;5.13;3.65;;;19.40;59.90;;;;;;5136522;27;20420;-31
2022/09/23 12:53:33;;;;;;;6.18;4.20;;;19.40;59.50;;;;;;5136349;27;20035;-28
2022/09/23 12:56:22;;;;;;;6.97;4.47;;;19.50;59.60;;;;;;5136133;27;20395;-35
2022/09/23 12:58:47;;;;;;;5.95;4.82;;;19.50;59.40;;;;;;5135960;27;20066;-36
2022/09/23 13:01:13;;;;;;;6.22;4.15;;;19.50;59.40;;;;;;5136026;27;20038;-33
2022/09/23 13:07:08;;;;;;;6.75;4.28;;;19.50;59.20;;;;;;5072466;28;20128;-33
2022/09/23 13:09:44;;;;;;;6.70;4.05;;;19.60;59.20;;;;;;5072464;28;20029;-35
2022/09/23 13:12:38;;;;;;;5.45;4.05;;;19.60;59.10;;;;;;5110321;27;20036;-31
2022/09/23 13:15:11;;;;;;;5.00;3.97;;;19.60;58.90;;;;;;5114114;27;20095;-31
2022/09/23 13:17:38;;;;;;;5.65;4.13;;;19.60;58.90;;;;;;5135769;27;20035;-29
2022/09/23 13:20:35;;;;;;;13.45;8.73;;;19.60;58.90;;;;;;5135595;27;20066;-31
2022/09/23 13:23:24;;;;;;;6.13;5.00;;;19.60;58.70;;;;;;5135719;27;20478;-37
2022/09/23 13:26:07;;;;;;;7.05;4.60;;;19.60;58.60;;;;;;5135367;27;20042;-31
2022/09/23 13:28:43;;;;;;;;;;;19.70;58.40;;;;;;5135866;27;20031;-30
2022/09/23 13:31:15;;;;;;;5.40;3.90;;;19.70;58.60;;;;;;5135574;27;19914;-33
2022/09/23 13:33:44;;;;;;;6.85;4.55;;;19.70;58.60;;;;;;5136239;27;20054;-29
2022/09/23 13:36:12;;;;;;;5.88;3.95;;;19.70;58.40;;;;;;5135577;27;20482;-34
2022/09/23 13:38:38;;;;;;;6.82;3.90;;;19.70;58.20;;;;;;5135466;27;20047;-31